| time (UTC) | temp C | wind direction | speed KPH | gust KPH | rain 1hr cm | rain 24hr cm | rain mn cm | humidity % | barometer mb |
| 20260509104504 | 15 | 209 | 9.7 | 19.3 | 0.00 | 0.13 | 0.00 | 71 | 1005.0 |
| 20260509103005 | 15 | 215 | 3.2 | 12.9 | 0.00 | 0.15 | 0.00 | 83 | 1005.0 |
| 20260509101504 | 15 | 231 | 4.8 | 14.5 | 0.00 | 0.25 | 0.00 | 95 | 1005.0 |
| 20260509100005 | 15 | 249 | 1.6 | 11.3 | 0.00 | 0.30 | 0.00 | 100 | 1005.0 |
| 20260509094504 | 16 | 207 | 6.4 | 11.3 | 0.00 | 0.30 | 0.00 | 100 | 1004.9 |
| 20260509093004 | 16 | 194 | 3.2 | 8.0 | 0.00 | 0.30 | 0.00 | 100 | 1004.9 |
| 20260509091505 | 16 | 355 | 1.6 | 4.8 | 0.00 | 0.30 | 0.00 | 100 | 1005.1 |
| 20260509090004 | 15 | 0 | 3.2 | 4.8 | 0.00 | 0.30 | 0.00 | 100 | 1005.1 |
| 20260509084504 | 15 | 0 | 3.2 | 4.8 | 0.00 | 0.30 | 0.00 | 100 | 1005.1 |
| 20260509083004 | 14 | 348 | 4.8 | 4.8 | 0.00 | 0.30 | 0.00 | 100 | 1005.0 |
| 20260509081504 | 14 | 87 | 3.2 | 11.3 | 0.00 | 0.30 | 0.00 | 100 | 1005.1 |
| 20260509080004 | 13 | 69 | 0.0 | 3.2 | 0.00 | 0.30 | 0.00 | 100 | 1005.1 |
| 20260509074504 | 13 | 69 | 0.0 | 4.8 | 0.00 | 0.30 | 0.00 | 100 | 1005.0 |
| 20260509073005 | 12 | 288 | 0.0 | 0.0 | 0.00 | 0.30 | 0.00 | 100 | 1005.2 |
| 20260509071504 | 12 | 288 | 1.6 | 4.8 | 0.00 | 0.30 | 0.00 | 100 | 1005.4 |
| 20260509070004 | 11 | 202 | 0.0 | 8.0 | 0.00 | 0.30 | 0.00 | 100 | 1005.3 |
| 20260509064504 | 11 | 217 | 3.2 | 8.0 | 0.00 | 0.30 | 0.00 | 100 | 1005.3 |
| 20260509063004 | 11 | 201 | 0.0 | 8.0 | 0.00 | 0.30 | 0.00 | 100 | 1005.3 |
| 20260509061504 | 11 | 128 | 1.6 | 4.8 | 0.00 | 0.30 | 0.00 | 100 | 1005.3 |
| 20260509060004 | 11 | 123 | 0.0 | 4.8 | 0.00 | 0.30 | 0.00 | 100 | 1005.3 |
| 20260509054504 | 11 | 123 | 0.0 | 0.0 | 0.00 | 0.30 | 0.00 | 100 | 1005.1 |
| 20260509053005 | 10 | 123 | 0.0 | 0.0 | 0.00 | 0.30 | 0.00 | 100 | 1005.1 |
| 20260509051504 | 10 | 123 | 0.0 | 0.0 | 0.00 | 0.30 | 0.00 | 100 | 1005.2 |
| 20260509050005 | 10 | 123 | 3.2 | 4.8 | 0.00 | 0.30 | 0.00 | 100 | 1005.1 |
| 20260509044505 | 10 | 122 | 0.0 | 3.2 | 0.00 | 0.30 | 0.00 | 100 | 1005.0 |
| 20260509043005 | 10 | 122 | 0.0 | 3.2 | 0.00 | 0.30 | 0.00 | 100 | 1005.0 |
| 20260509041504 | 10 | 122 | 0.0 | 4.8 | 0.00 | 0.30 | 0.00 | 100 | 1005.1 |
| 20260509040005 | 10 | 122 | 0.0 | 4.8 | 0.00 | 0.30 | 0.00 | 100 | 1005.4 |
| 20260509034504 | 10 | 122 | 0.0 | 0.0 | 0.00 | 0.30 | 0.00 | 100 | 1005.4 |
| 20260509033004 | 10 | 122 | 1.6 | 4.8 | 0.00 | 0.30 | 0.00 | 100 | 1005.8 |
| 20260509031504 | 10 | 117 | 0.0 | 0.0 | 0.00 | 0.30 | 0.00 | 100 | 1005.8 |
| 20260509030004 | 10 | 117 | 0.0 | 3.2 | 0.00 | 0.30 | 0.00 | 100 | 1006.0 |
| 20260509024504 | 10 | 117 | 0.0 | 3.2 | 0.00 | 0.30 | 0.00 | 100 | 1006.0 |
| 20260509023005 | 10 | 117 | 1.6 | 3.2 | 0.00 | 0.30 | 0.00 | 100 | 1005.9 |
| 20260509021504 | 10 | 117 | 0.0 | 3.2 | 0.00 | 0.30 | 0.00 | 100 | 1006.3 |
| 20260509020004 | 10 | 117 | 0.0 | 0.0 | 0.00 | 0.30 | 0.00 | 100 | 1006.5 |
| 20260509014504 | 10 | 117 | 0.0 | 0.0 | 0.00 | 0.30 | 0.00 | 100 | 1006.6 |
| 20260509013005 | 10 | 117 | 0.0 | 0.0 | 0.00 | 0.30 | 0.00 | 100 | 1006.7 |
| 20260509011504 | 10 | 117 | 0.0 | 0.0 | 0.00 | 0.30 | 0.00 | 100 | 1006.8 |
| 20260509010004 | 10 | 117 | 0.0 | 0.0 | 0.00 | 0.30 | 0.00 | 100 | 1007.0 |
| 20260509004504 | 10 | 117 | 0.0 | 0.0 | 0.00 | 0.30 | 0.00 | 100 | 1007.0 |
| 20260509003004 | 11 | 117 | 0.0 | 3.2 | 0.00 | 0.30 | 0.00 | 100 | 1007.1 |
| 20260509001504 | 11 | 117 | 0.0 | 0.0 | 0.00 | 0.30 | 0.00 | 100 | 1007.3 |
| 20260509000004 | 11 | 117 | 0.0 | 3.2 | 0.00 | 0.30 | 0.00 | 100 | 1007.5 |
| 20260508234504 | 11 | 117 | 0.0 | 3.2 | 0.00 | 0.30 | 0.00 | 100 | 1007.7 |
| 20260508233004 | 11 | 117 | 0.0 | 3.2 | 0.00 | 0.30 | 0.00 | 100 | 1007.7 |
| 20260508231504 | 11 | 117 | 0.0 | 9.7 | 0.00 | 0.30 | 0.00 | 100 | 1007.6 |
| 20260508230004 | 11 | 115 | 3.2 | 4.8 | 0.00 | 0.30 | 0.00 | 100 | 1007.8 |
| 20260508224504 | 11 | 115 | 0.0 | 4.8 | 0.00 | 0.30 | 0.00 | 100 | 1007.8 |
| 20260508223005 | 11 | 115 | 1.6 | 4.8 | 0.00 | 0.30 | 0.00 | 100 | 1008.0 |
| 20260508221504 | 11 | 115 | 3.2 | 4.8 | 0.00 | 0.30 | 0.00 | 100 | 1008.0 |
| 20260508220004 | 11 | 115 | 1.6 | 4.8 | 0.00 | 0.30 | 0.00 | 100 | 1008.3 |
| 20260508214504 | 11 | 115 | 3.2 | 4.8 | 0.00 | 0.30 | 0.30 | 100 | 1008.4 |
| 20260508213020 | 11 | 115 | 0.0 | 0.0 | 0.00 | 0.30 | 0.30 | 100 | 1008.5 |
| 20260508211504 | 11 | 115 | 0.0 | 3.2 | 0.00 | 0.30 | 0.30 | 100 | 1008.6 |
| 20260508210004 | 11 | 115 | 1.6 | 9.7 | 0.00 | 0.30 | 0.30 | 100 | 1008.6 |
| 20260508204504 | 12 | 89 | 3.2 | 11.3 | 0.00 | 0.30 | 0.30 | 100 | 1008.6 |
| 20260508203004 | 12 | 75 | 3.2 | 8.0 | 0.00 | 0.30 | 0.30 | 100 | 1008.6 |
| 20260508201504 | 11 | 108 | 3.2 | 4.8 | 0.00 | 0.30 | 0.30 | 100 | 1008.5 |
| 20260508200004 | 11 | 58 | 0.0 | 4.8 | 0.00 | 0.30 | 0.30 | 100 | 1008.3 |
| 20260508194505 | 12 | 61 | 0.0 | 3.2 | 0.00 | 0.30 | 0.30 | 100 | 1008.0 |
| 20260508193004 | 12 | 61 | 1.6 | 4.8 | 0.00 | 0.30 | 0.30 | 100 | 1007.9 |
| 20260508191504 | 12 | 61 | 0.0 | 0.0 | 0.00 | 0.30 | 0.30 | 100 | 1007.8 |
| 20260508190004 | 12 | 61 | 0.0 | 4.8 | 0.00 | 0.30 | 0.30 | 100 | 1007.6 |
| 20260508184504 | 12 | 62 | 1.6 | 4.8 | 0.00 | 0.30 | 0.30 | 100 | 1007.5 |
| 20260508183004 | 12 | 0 | 0.0 | 4.8 | 0.00 | 0.30 | 0.30 | 99 | 1007.4 |
| 20260508181504 | 13 | 13 | 1.6 | 11.3 | 0.00 | 0.30 | 0.30 | 98 | 1007.2 |
| 20260508180004 | 13 | 77 | 1.6 | 9.7 | 0.00 | 0.30 | 0.30 | 97 | 1007.1 |
| 20260508174504 | 13 | 60 | 3.2 | 8.0 | 0.00 | 0.30 | 0.30 | 97 | 1007.0 |
| 20260508173004 | 13 | 72 | 1.6 | 4.8 | 0.00 | 0.33 | 0.30 | 96 | 1007.0 |
| 20260508171504 | 13 | 189 | 0.0 | 0.0 | 0.00 | 0.33 | 0.30 | 98 | 1006.9 |
| 20260508170005 | 13 | 189 | 0.0 | 3.2 | 0.03 | 0.36 | 0.30 | 99 | 1007.0 |
| 20260508164504 | 13 | 189 | 0.0 | 4.8 | 0.05 | 0.36 | 0.30 | 100 | 1006.8 |
| 20260508163005 | 13 | 164 | 0.0 | 8.0 | 0.10 | 0.36 | 0.30 | 100 | 1006.8 |
| 20260508161504 | 13 | 181 | 1.6 | 4.8 | 0.10 | 0.36 | 0.30 | 100 | 1006.6 |
| 20260508160004 | 13 | 119 | 0.0 | 4.8 | 0.10 | 0.33 | 0.28 | 100 | 1006.5 |
| 20260508154504 | 13 | 117 | 0.0 | 8.0 | 0.08 | 0.30 | 0.25 | 100 | 1006.6 |
| 20260508153005 | 13 | 230 | 4.8 | 9.7 | 0.03 | 0.25 | 0.20 | 100 | 1006.8 |
| 20260508151504 | 14 | 205 | 3.2 | 4.8 | 0.03 | 0.25 | 0.20 | 100 | 1006.4 |
| 20260508150004 | 14 | 205 | 3.2 | 8.0 | 0.00 | 0.23 | 0.18 | 100 | 1006.5 |
| 20260508144504 | 14 | 199 | 3.2 | 4.8 | 0.00 | 0.25 | 0.18 | 100 | 1006.2 |
| 20260508143004 | 15 | 210 | 3.2 | 12.9 | 0.00 | 0.25 | 0.18 | 100 | 1006.3 |
| 20260508141504 | 14 | 148 | 0.0 | 9.7 | 0.00 | 0.25 | 0.18 | 100 | 1006.5 |
| 20260508140004 | 14 | 153 | 4.8 | 9.7 | 0.00 | 0.25 | 0.18 | 100 | 1006.6 |
| 20260508134504 | 14 | 173 | 1.6 | 8.0 | 0.00 | 0.25 | 0.18 | 100 | 1006.8 |
| 20260508133004 | 13 | 173 | 0.0 | 4.8 | 0.00 | 0.25 | 0.18 | 100 | 1007.0 |
| 20260508131505 | 13 | 271 | 0.0 | 3.2 | 0.00 | 0.25 | 0.18 | 100 | 1007.2 |
| 20260508130004 | 13 | 270 | 0.0 | 4.8 | 0.00 | 0.25 | 0.18 | 100 | 1007.3 |
| 20260508124504 | 13 | 295 | 0.0 | 11.3 | 0.00 | 0.25 | 0.18 | 100 | 1007.3 |
| 20260508123005 | 13 | 347 | 4.8 | 8.0 | 0.00 | 0.25 | 0.18 | 100 | 1007.7 |
| 20260508121504 | 13 | 286 | 1.6 | 4.8 | 0.00 | 0.25 | 0.18 | 100 | 1007.7 |
| 20260508120004 | 13 | 262 | 1.6 | 4.8 | 0.00 | 0.25 | 0.18 | 100 | 1007.5 |
| 20260508114504 | 13 | 211 | 3.2 | 4.8 | 0.00 | 0.25 | 0.18 | 100 | 1007.3 |
| 20260508113005 | 13 | 200 | 0.0 | 3.2 | 0.03 | 0.25 | 0.18 | 100 | 1007.1 |
| 20260508111504 | 13 | 200 | 1.6 | 4.8 | 0.13 | 0.25 | 0.18 | 100 | 1007.3 |
| 20260508110004 | 13 | 252 | 0.0 | 3.2 | 0.18 | 0.25 | 0.18 | 100 | 1007.5 |